sensor_id;sensor_type;location;lat;lon;timestamp;P1;durP1;ratioP1;P2;durP2;ratioP2
51288;SDS011;37372;52.294;5.152;2023-08-20T00:01:48;5.93;;;2.60;;
51288;SDS011;37372;52.294;5.152;2023-08-20T00:04:20;6.20;;;2.38;;
51288;SDS011;37372;52.294;5.152;2023-08-20T00:06:47;9.68;;;2.45;;
51288;SDS011;37372;52.294;5.152;2023-08-20T00:09:12;8.93;;;2.45;;
51288;SDS011;37372;52.294;5.152;2023-08-20T00:11:38;9.27;;;2.63;;
51288;SDS011;37372;52.294;5.152;2023-08-20T00:14:03;5.80;;;2.08;;
51288;SDS011;37372;52.294;5.152;2023-08-20T00:16:29;8.10;;;2.33;;
51288;SDS011;37372;52.294;5.152;2023-08-20T00:18:54;7.82;;;2.45;;
51288;SDS011;37372;52.294;5.152;2023-08-20T00:21:20;7.20;;;2.22;;
51288;SDS011;37372;52.294;5.152;2023-08-20T00:23:46;12.85;;;2.58;;
51288;SDS011;37372;52.294;5.152;2023-08-20T00:26:12;8.85;;;2.22;;
51288;SDS011;37372;52.294;5.152;2023-08-20T00:28:37;5.72;;;2.03;;
51288;SDS011;37372;52.294;5.152;2023-08-20T00:31:04;10.30;;;3.00;;
51288;SDS011;37372;52.294;5.152;2023-08-20T00:33:29;11.07;;;2.40;;
51288;SDS011;37372;52.294;5.152;2023-08-20T00:35:55;7.15;;;2.05;;
51288;SDS011;37372;52.294;5.152;2023-08-20T00:38:21;8.80;;;2.50;;
51288;SDS011;37372;52.294;5.152;2023-08-20T00:40:46;8.82;;;3.17;;
51288;SDS011;37372;52.294;5.152;2023-08-20T00:43:12;7.25;;;2.08;;
51288;SDS011;37372;52.294;5.152;2023-08-20T00:45:38;8.27;;;2.10;;
51288;SDS011;37372;52.294;5.152;2023-08-20T00:48:05;8.65;;;1.90;;
51288;SDS011;37372;52.294;5.152;2023-08-20T00:50:31;8.68;;;2.10;;
51288;SDS011;37372;52.294;5.152;2023-08-20T00:52:57;10.45;;;3.53;;
51288;SDS011;37372;52.294;5.152;2023-08-20T00:55:23;6.40;;;2.25;;
51288;SDS011;37372;52.294;5.152;2023-08-20T00:57:48;8.32;;;2.45;;
51288;SDS011;37372;52.294;5.152;2023-08-20T01:00:14;6.97;;;2.25;;
51288;SDS011;37372;52.294;5.152;2023-08-20T01:02:41;8.60;;;2.25;;
51288;SDS011;37372;52.294;5.152;2023-08-20T01:05:07;7.05;;;2.30;;
51288;SDS011;37372;52.294;5.152;2023-08-20T01:07:43;5.10;;;2.22;;
51288;SDS011;37372;52.294;5.152;2023-08-20T01:10:38;6.85;;;2.03;;
51288;SDS011;37372;52.294;5.152;2023-08-20T01:13:14;8.25;;;2.55;;
51288;SDS011;37372;52.294;5.152;2023-08-20T01:15:40;6.72;;;2.40;;
51288;SDS011;37372;52.294;5.152;2023-08-20T01:18:05;10.10;;;2.40;;
51288;SDS011;37372;52.294;5.152;2023-08-20T01:20:33;6.32;;;2.53;;
51288;SDS011;37372;52.294;5.152;2023-08-20T01:28:36;13.15;;;2.80;;
51288;SDS011;37372;52.294;5.152;2023-08-20T01:31:04;6.43;;;1.85;;
51288;SDS011;37372;52.294;5.152;2023-08-20T01:33:31;5.72;;;2.45;;
51288;SDS011;37372;52.294;5.152;2023-08-20T01:35:56;11.35;;;3.10;;
51288;SDS011;37372;52.294;5.152;2023-08-20T01:38:22;13.32;;;3.22;;
51288;SDS011;37372;52.294;5.152;2023-08-20T01:40:47;4.78;;;2.05;;
51288;SDS011;37372;52.294;5.152;2023-08-20T01:43:13;7.47;;;2.10;;
51288;SDS011;37372;52.294;5.152;2023-08-20T01:45:38;6.85;;;2.85;;
51288;SDS011;37372;52.294;5.152;2023-08-20T01:48:04;6.05;;;2.25;;
51288;SDS011;37372;52.294;5.152;2023-08-20T01:50:30;7.30;;;2.05;;
51288;SDS011;37372;52.294;5.152;2023-08-20T01:52:56;9.52;;;2.58;;
51288;SDS011;37372;52.294;5.152;2023-08-20T01:55:21;6.80;;;2.25;;
51288;SDS011;37372;52.294;5.152;2023-08-20T01:57:47;5.63;;;2.28;;
51288;SDS011;37372;52.294;5.152;2023-08-20T02:00:12;7.22;;;2.50;;
51288;SDS011;37372;52.294;5.152;2023-08-20T02:02:38;9.43;;;2.72;;
51288;SDS011;37372;52.294;5.152;2023-08-20T02:05:03;8.32;;;2.60;;
51288;SDS011;37372;52.294;5.152;2023-08-20T02:07:29;8.27;;;2.65;;
51288;SDS011;37372;52.294;5.152;2023-08-20T02:09:54;9.25;;;2.45;;
51288;SDS011;37372;52.294;5.152;2023-08-20T02:12:20;8.85;;;2.13;;
51288;SDS011;37372;52.294;5.152;2023-08-20T02:14:45;8.63;;;2.28;;
51288;SDS011;37372;52.294;5.152;2023-08-20T02:17:11;10.48;;;2.40;;
51288;SDS011;37372;52.294;5.152;2023-08-20T02:19:37;15.52;;;3.33;;
51288;SDS011;37372;52.294;5.152;2023-08-20T02:22:03;11.48;;;2.67;;
51288;SDS011;37372;52.294;5.152;2023-08-20T02:24:29;13.32;;;2.20;;
51288;SDS011;37372;52.294;5.152;2023-08-20T02:26:54;10.02;;;2.30;;
51288;SDS011;37372;52.294;5.152;2023-08-20T02:29:19;10.80;;;2.30;;
51288;SDS011;37372;52.294;5.152;2023-08-20T02:31:45;10.68;;;3.17;;
51288;SDS011;37372;52.294;5.152;2023-08-20T02:34:10;10.70;;;2.40;;
51288;SDS011;37372;52.294;5.152;2023-08-20T02:36:35;9.85;;;2.70;;
51288;SDS011;37372;52.294;5.152;2023-08-20T02:39:01;8.15;;;2.97;;
51288;SDS011;37372;52.294;5.152;2023-08-20T02:41:28;10.27;;;2.60;;
51288;SDS011;37372;52.294;5.152;2023-08-20T02:43:54;5.43;;;1.85;;
51288;SDS011;37372;52.294;5.152;2023-08-20T02:46:19;9.68;;;2.22;;
51288;SDS011;37372;52.294;5.152;2023-08-20T02:48:44;8.90;;;2.15;;
51288;SDS011;37372;52.294;5.152;2023-08-20T02:51:10;10.57;;;2.75;;
51288;SDS011;37372;52.294;5.152;2023-08-20T02:53:35;8.85;;;2.45;;
51288;SDS011;37372;52.294;5.152;2023-08-20T02:56:00;9.27;;;2.90;;
51288;SDS011;37372;52.294;5.152;2023-08-20T02:58:26;9.00;;;2.38;;
51288;SDS011;37372;52.294;5.152;2023-08-20T03:00:51;6.25;;;2.13;;
51288;SDS011;37372;52.294;5.152;2023-08-20T03:03:18;7.45;;;1.98;;
51288;SDS011;37372;52.294;5.152;2023-08-20T03:05:43;11.07;;;2.92;;
51288;SDS011;37372;52.294;5.152;2023-08-20T03:08:08;5.40;;;1.77;;
51288;SDS011;37372;52.294;5.152;2023-08-20T03:10:35;8.30;;;2.22;;
51288;SDS011;37372;52.294;5.152;2023-08-20T03:13:03;8.85;;;2.63;;
51288;SDS011;37372;52.294;5.152;2023-08-20T03:15:29;8.77;;;2.03;;
51288;SDS011;37372;52.294;5.152;2023-08-20T03:17:54;11.60;;;2.30;;
51288;SDS011;37372;52.294;5.152;2023-08-20T03:20:20;6.65;;;2.20;;
51288;SDS011;37372;52.294;5.152;2023-08-20T03:22:45;7.97;;;2.67;;
51288;SDS011;37372;52.294;5.152;2023-08-20T03:25:11;8.77;;;2.00;;
51288;SDS011;37372;52.294;5.152;2023-08-20T03:27:36;8.00;;;3.08;;
51288;SDS011;37372;52.294;5.152;2023-08-20T03:30:02;15.65;;;3.35;;
51288;SDS011;37372;52.294;5.152;2023-08-20T03:32:29;6.60;;;2.15;;
51288;SDS011;37372;52.294;5.152;2023-08-20T03:34:54;9.30;;;2.35;;
51288;SDS011;37372;52.294;5.152;2023-08-20T03:37:21;12.00;;;3.22;;
51288;SDS011;37372;52.294;5.152;2023-08-20T03:39:47;9.85;;;2.40;;
51288;SDS011;37372;52.294;5.152;2023-08-20T03:42:12;7.78;;;2.50;;
51288;SDS011;37372;52.294;5.152;2023-08-20T03:44:38;11.73;;;2.53;;
51288;SDS011;37372;52.294;5.152;2023-08-20T03:47:03;10.93;;;2.25;;
51288;SDS011;37372;52.294;5.152;2023-08-20T03:49:29;16.63;;;3.70;;
51288;SDS011;37372;52.294;5.152;2023-08-20T03:51:54;9.48;;;2.40;;
51288;SDS011;37372;52.294;5.152;2023-08-20T03:54:19;8.57;;;2.90;;
51288;SDS011;37372;52.294;5.152;2023-08-20T03:56:45;10.82;;;3.13;;
51288;SDS011;37372;52.294;5.152;2023-08-20T03:59:10;5.95;;;2.45;;
51288;SDS011;37372;52.294;5.152;2023-08-20T04:01:36;7.95;;;1.80;;
51288;SDS011;37372;52.294;5.152;2023-08-20T04:04:02;10.50;;;2.80;;
51288;SDS011;37372;52.294;5.152;2023-08-20T04:06:30;10.30;;;2.63;;
51288;SDS011;37372;52.294;5.152;2023-08-20T04:08:56;8.40;;;2.10;;
51288;SDS011;37372;52.294;5.152;2023-08-20T04:11:21;7.85;;;2.30;;
51288;SDS011;37372;52.294;5.152;2023-08-20T04:13:47;9.80;;;3.00;;
51288;SDS011;37372;52.294;5.152;2023-08-20T04:16:12;8.30;;;2.67;;
51288;SDS011;37372;52.294;5.152;2023-08-20T04:18:38;6.28;;;2.03;;
51288;SDS011;37372;52.294;5.152;2023-08-20T04:21:04;6.78;;;2.38;;
51288;SDS011;37372;52.294;5.152;2023-08-20T04:23:30;7.57;;;2.20;;
51288;SDS011;37372;52.294;5.152;2023-08-20T04:25:55;10.48;;;2.55;;
51288;SDS011;37372;52.294;5.152;2023-08-20T04:28:20;10.40;;;2.58;;
51288;SDS011;37372;52.294;5.152;2023-08-20T04:30:46;7.63;;;2.20;;
51288;SDS011;37372;52.294;5.152;2023-08-20T04:33:11;10.60;;;2.65;;
51288;SDS011;37372;52.294;5.152;2023-08-20T04:35:37;9.02;;;2.78;;
51288;SDS011;37372;52.294;5.152;2023-08-20T04:38:02;8.55;;;2.28;;
51288;SDS011;37372;52.294;5.152;2023-08-20T04:40:28;12.50;;;2.78;;
51288;SDS011;37372;52.294;5.152;2023-08-20T04:42:53;9.43;;;3.60;;
51288;SDS011;37372;52.294;5.152;2023-08-20T04:45:19;8.93;;;3.30;;
51288;SDS011;37372;52.294;5.152;2023-08-20T04:47:45;10.32;;;2.88;;
51288;SDS011;37372;52.294;5.152;2023-08-20T04:50:11;11.10;;;3.25;;
51288;SDS011;37372;52.294;5.152;2023-08-20T04:52:38;8.27;;;2.35;;
51288;SDS011;37372;52.294;5.152;2023-08-20T04:55:04;6.95;;;2.60;;
51288;SDS011;37372;52.294;5.152;2023-08-20T04:57:31;7.95;;;2.42;;
51288;SDS011;37372;52.294;5.152;2023-08-20T04:59:56;7.55;;;2.67;;
51288;SDS011;37372;52.294;5.152;2023-08-20T05:02:22;7.50;;;2.47;;
51288;SDS011;37372;52.294;5.152;2023-08-20T05:04:48;9.10;;;2.70;;
51288;SDS011;37372;52.294;5.152;2023-08-20T05:07:14;7.43;;;2.90;;
51288;SDS011;37372;52.294;5.152;2023-08-20T05:09:39;11.32;;;2.72;;
51288;SDS011;37372;52.294;5.152;2023-08-20T05:12:04;8.43;;;2.58;;
51288;SDS011;37372;52.294;5.152;2023-08-20T05:14:30;11.82;;;3.58;;
51288;SDS011;37372;52.294;5.152;2023-08-20T05:16:56;15.00;;;3.70;;
51288;SDS011;37372;52.294;5.152;2023-08-20T05:19:22;6.32;;;2.70;;
51288;SDS011;37372;52.294;5.152;2023-08-20T05:21:47;10.48;;;3.13;;
51288;SDS011;37372;52.294;5.152;2023-08-20T05:24:12;13.77;;;3.47;;
51288;SDS011;37372;52.294;5.152;2023-08-20T05:26:38;9.57;;;3.13;;
51288;SDS011;37372;52.294;5.152;2023-08-20T05:29:03;13.43;;;3.42;;
51288;SDS011;37372;52.294;5.152;2023-08-20T05:31:29;10.98;;;3.60;;
51288;SDS011;37372;52.294;5.152;2023-08-20T05:33:54;13.85;;;4.20;;
51288;SDS011;37372;52.294;5.152;2023-08-20T05:36:19;10.07;;;4.43;;
51288;SDS011;37372;52.294;5.152;2023-08-20T05:38:45;20.55;;;4.63;;
51288;SDS011;37372;52.294;5.152;2023-08-20T05:41:10;22.30;;;4.88;;
51288;SDS011;37372;52.294;5.152;2023-08-20T05:43:36;15.85;;;4.32;;
51288;SDS011;37372;52.294;5.152;2023-08-20T05:46:02;15.85;;;3.90;;
51288;SDS011;37372;52.294;5.152;2023-08-20T05:48:27;10.05;;;4.13;;
51288;SDS011;37372;52.294;5.152;2023-08-20T05:50:53;17.33;;;4.45;;
51288;SDS011;37372;52.294;5.152;2023-08-20T05:53:18;13.80;;;3.88;;
51288;SDS011;37372;52.294;5.152;2023-08-20T05:55:44;9.23;;;3.55;;
51288;SDS011;37372;52.294;5.152;2023-08-20T05:58:09;16.88;;;3.63;;
51288;SDS011;37372;52.294;5.152;2023-08-20T06:00:34;11.25;;;3.20;;
51288;SDS011;37372;52.294;5.152;2023-08-20T06:03:00;11.70;;;3.70;;
51288;SDS011;37372;52.294;5.152;2023-08-20T06:05:25;11.27;;;3.83;;
51288;SDS011;37372;52.294;5.152;2023-08-20T06:07:51;11.55;;;3.53;;
51288;SDS011;37372;52.294;5.152;2023-08-20T06:10:16;11.98;;;3.42;;
51288;SDS011;37372;52.294;5.152;2023-08-20T06:12:42;9.60;;;3.40;;
51288;SDS011;37372;52.294;5.152;2023-08-20T06:15:07;16.40;;;3.83;;
51288;SDS011;37372;52.294;5.152;2023-08-20T06:17:33;7.70;;;3.13;;
51288;SDS011;37372;52.294;5.152;2023-08-20T06:19:58;13.45;;;3.38;;
51288;SDS011;37372;52.294;5.152;2023-08-20T06:22:24;15.05;;;4.22;;
51288;SDS011;37372;52.294;5.152;2023-08-20T06:24:49;13.02;;;3.85;;
51288;SDS011;37372;52.294;5.152;2023-08-20T06:27:14;14.18;;;6.28;;
51288;SDS011;37372;52.294;5.152;2023-08-20T06:29:40;13.02;;;3.50;;
51288;SDS011;37372;52.294;5.152;2023-08-20T06:32:05;9.45;;;3.38;;
51288;SDS011;37372;52.294;5.152;2023-08-20T06:34:30;9.60;;;3.20;;
51288;SDS011;37372;52.294;5.152;2023-08-20T06:36:56;10.27;;;3.28;;
51288;SDS011;37372;52.294;5.152;2023-08-20T06:39:21;15.15;;;3.72;;
51288;SDS011;37372;52.294;5.152;2023-08-20T06:41:47;12.30;;;3.10;;
51288;SDS011;37372;52.294;5.152;2023-08-20T06:44:12;8.48;;;2.65;;
51288;SDS011;37372;52.294;5.152;2023-08-20T06:46:38;13.45;;;3.38;;
51288;SDS011;37372;52.294;5.152;2023-08-20T06:49:03;13.23;;;3.80;;
51288;SDS011;37372;52.294;5.152;2023-08-20T06:51:28;11.77;;;3.33;;
51288;SDS011;37372;52.294;5.152;2023-08-20T06:53:54;12.60;;;3.00;;
51288;SDS011;37372;52.294;5.152;2023-08-20T06:56:21;9.98;;;2.80;;
51288;SDS011;37372;52.294;5.152;2023-08-20T06:58:47;12.70;;;2.97;;
51288;SDS011;37372;52.294;5.152;2023-08-20T07:01:12;15.90;;;3.33;;
51288;SDS011;37372;52.294;5.152;2023-08-20T07:03:41;11.77;;;2.78;;
51288;SDS011;37372;52.294;5.152;2023-08-20T07:06:08;14.73;;;3.67;;
51288;SDS011;37372;52.294;5.152;2023-08-20T07:08:34;11.68;;;2.80;;
51288;SDS011;37372;52.294;5.152;2023-08-20T07:11:00;13.98;;;3.55;;
51288;SDS011;37372;52.294;5.152;2023-08-20T07:13:26;16.25;;;2.88;;
51288;SDS011;37372;52.294;5.152;2023-08-20T07:15:52;11.77;;;2.83;;
51288;SDS011;37372;52.294;5.152;2023-08-20T07:18:17;11.15;;;2.70;;
51288;SDS011;37372;52.294;5.152;2023-08-20T07:20:43;12.90;;;2.78;;
51288;SDS011;37372;52.294;5.152;2023-08-20T07:23:12;13.07;;;2.92;;
51288;SDS011;37372;52.294;5.152;2023-08-20T07:25:38;16.70;;;4.30;;
51288;SDS011;37372;52.294;5.152;2023-08-20T07:28:04;16.52;;;3.58;;
51288;SDS011;37372;52.294;5.152;2023-08-20T07:30:31;12.27;;;3.50;;
51288;SDS011;37372;52.294;5.152;2023-08-20T07:32:57;10.77;;;3.33;;
51288;SDS011;37372;52.294;5.152;2023-08-20T07:35:22;15.60;;;3.78;;
51288;SDS011;37372;52.294;5.152;2023-08-20T07:37:48;11.40;;;3.58;;
51288;SDS011;37372;52.294;5.152;2023-08-20T07:40:13;12.25;;;4.32;;
51288;SDS011;37372;52.294;5.152;2023-08-20T07:42:42;17.70;;;4.38;;
51288;SDS011;37372;52.294;5.152;2023-08-20T07:45:08;14.00;;;4.55;;
51288;SDS011;37372;52.294;5.152;2023-08-20T07:47:35;15.45;;;3.63;;
51288;SDS011;37372;52.294;5.152;2023-08-20T07:50:02;11.75;;;3.75;;
51288;SDS011;37372;52.294;5.152;2023-08-20T07:52:28;9.43;;;3.45;;
51288;SDS011;37372;52.294;5.152;2023-08-20T07:54:53;19.85;;;5.05;;
51288;SDS011;37372;52.294;5.152;2023-08-20T07:57:18;15.13;;;4.53;;
51288;SDS011;37372;52.294;5.152;2023-08-20T07:59:44;15.00;;;3.70;;
51288;SDS011;37372;52.294;5.152;2023-08-20T08:02:09;11.27;;;4.22;;
51288;SDS011;37372;52.294;5.152;2023-08-20T08:04:35;15.55;;;3.40;;
51288;SDS011;37372;52.294;5.152;2023-08-20T08:07:00;12.60;;;3.30;;
51288;SDS011;37372;52.294;5.152;2023-08-20T08:09:30;18.73;;;8.48;;
51288;SDS011;37372;52.294;5.152;2023-08-20T08:11:56;24.02;;;8.45;;
51288;SDS011;37372;52.294;5.152;2023-08-20T08:14:23;8.80;;;3.03;;
51288;SDS011;37372;52.294;5.152;2023-08-20T08:16:48;14.27;;;3.15;;
51288;SDS011;37372;52.294;5.152;2023-08-20T08:19:15;10.00;;;2.80;;
51288;SDS011;37372;52.294;5.152;2023-08-20T08:21:41;16.05;;;4.07;;
51288;SDS011;37372;52.294;5.152;2023-08-20T08:24:08;12.43;;;2.92;;
51288;SDS011;37372;52.294;5.152;2023-08-20T08:26:34;11.95;;;3.28;;
51288;SDS011;37372;52.294;5.152;2023-08-20T08:29:03;10.65;;;2.85;;
51288;SDS011;37372;52.294;5.152;2023-08-20T08:31:28;11.60;;;2.85;;
51288;SDS011;37372;52.294;5.152;2023-08-20T08:33:54;14.05;;;3.13;;
51288;SDS011;37372;52.294;5.152;2023-08-20T08:36:19;15.93;;;3.42;;
51288;SDS011;37372;52.294;5.152;2023-08-20T08:38:45;9.98;;;2.78;;
51288;SDS011;37372;52.294;5.152;2023-08-20T08:41:11;9.68;;;2.78;;
51288;SDS011;37372;52.294;5.152;2023-08-20T08:43:38;9.43;;;2.35;;
51288;SDS011;37372;52.294;5.152;2023-08-20T08:46:08;7.15;;;1.85;;
51288;SDS011;37372;52.294;5.152;2023-08-20T08:51:05;11.18;;;2.35;;
51288;SDS011;37372;52.294;5.152;2023-08-20T08:53:30;8.75;;;1.98;;
51288;SDS011;37372;52.294;5.152;2023-08-20T08:55:57;10.00;;;2.90;;
51288;SDS011;37372;52.294;5.152;2023-08-20T08:58:23;10.05;;;2.58;;
51288;SDS011;37372;52.294;5.152;2023-08-20T09:00:49;9.73;;;2.35;;
51288;SDS011;37372;52.294;5.152;2023-08-20T09:03:14;7.25;;;1.70;;
51288;SDS011;37372;52.294;5.152;2023-08-20T09:05:49;13.02;;;2.63;;
51288;SDS011;37372;52.294;5.152;2023-08-20T09:08:19;7.05;;;1.60;;
51288;SDS011;37372;52.294;5.152;2023-08-20T09:10:51;17.52;;;1.98;;
51288;SDS011;37372;52.294;5.152;2023-08-20T09:13:17;6.28;;;1.77;;
51288;SDS011;37372;52.294;5.152;2023-08-20T09:15:44;9.35;;;2.30;;
51288;SDS011;37372;52.294;5.152;2023-08-20T09:18:10;10.75;;;1.98;;
51288;SDS011;37372;52.294;5.152;2023-08-20T09:20:36;6.82;;;1.80;;
51288;SDS011;37372;52.294;5.152;2023-08-20T09:23:02;6.60;;;1.73;;
51288;SDS011;37372;52.294;5.152;2023-08-20T09:25:27;10.05;;;2.15;;
51288;SDS011;37372;52.294;5.152;2023-08-20T09:27:53;10.48;;;2.30;;
51288;SDS011;37372;52.294;5.152;2023-08-20T09:30:19;12.30;;;2.53;;
51288;SDS011;37372;52.294;5.152;2023-08-20T09:33:03;9.82;;;2.45;;
51288;SDS011;37372;52.294;5.152;2023-08-20T09:35:29;10.68;;;2.20;;
51288;SDS011;37372;52.294;5.152;2023-08-20T09:38:01;9.30;;;2.42;;
51288;SDS011;37372;52.294;5.152;2023-08-20T09:40:28;10.87;;;3.27;;
51288;SDS011;37372;52.294;5.152;2023-08-20T09:42:54;6.68;;;1.63;;
51288;SDS011;37372;52.294;5.152;2023-08-20T09:45:21;12.82;;;2.42;;
51288;SDS011;37372;52.294;5.152;2023-08-20T09:47:49;8.63;;;2.08;;
51288;SDS011;37372;52.294;5.152;2023-08-20T09:50:18;7.53;;;2.50;;
51288;SDS011;37372;52.294;5.152;2023-08-20T09:52:48;9.05;;;2.10;;
51288;SDS011;37372;52.294;5.152;2023-08-20T09:55:17;10.48;;;2.10;;
51288;SDS011;37372;52.294;5.152;2023-08-20T09:57:46;9.25;;;1.63;;
51288;SDS011;37372;52.294;5.152;2023-08-20T10:00:13;13.55;;;3.10;;
51288;SDS011;37372;52.294;5.152;2023-08-20T10:02:39;9.30;;;2.42;;
51288;SDS011;37372;52.294;5.152;2023-08-20T10:05:05;6.60;;;1.30;;
51288;SDS011;37372;52.294;5.152;2023-08-20T10:07:32;10.27;;;1.45;;
51288;SDS011;37372;52.294;5.152;2023-08-20T10:09:59;10.50;;;1.75;;
51288;SDS011;37372;52.294;5.152;2023-08-20T10:12:27;10.55;;;2.42;;
51288;SDS011;37372;52.294;5.152;2023-08-20T10:14:53;5.60;;;1.80;;
51288;SDS011;37372;52.294;5.152;2023-08-20T10:17:20;8.82;;;1.45;;
51288;SDS011;37372;52.294;5.152;2023-08-20T10:19:47;7.75;;;1.45;;
51288;SDS011;37372;52.294;5.152;2023-08-20T10:22:12;10.25;;;2.13;;
51288;SDS011;37372;52.294;5.152;2023-08-20T10:24:41;7.97;;;1.65;;
51288;SDS011;37372;52.294;5.152;2023-08-20T10:27:23;5.38;;;1.27;;
51288;SDS011;37372;52.294;5.152;2023-08-20T10:29:55;6.68;;;1.48;;
51288;SDS011;37372;52.294;5.152;2023-08-20T10:32:43;9.23;;;1.55;;
51288;SDS011;37372;52.294;5.152;2023-08-20T10:35:14;5.78;;;1.52;;
51288;SDS011;37372;52.294;5.152;2023-08-20T10:38:00;7.85;;;2.40;;
51288;SDS011;37372;52.294;5.152;2023-08-20T10:40:51;9.07;;;1.55;;
51288;SDS011;37372;52.294;5.152;2023-08-20T10:43:30;6.00;;;1.20;;
51288;SDS011;37372;52.294;5.152;2023-08-20T10:46:06;11.75;;;1.88;;
51288;SDS011;37372;52.294;5.152;2023-08-20T10:48:32;6.10;;;1.30;;
51288;SDS011;37372;52.294;5.152;2023-08-20T10:59:05;8.30;;;1.60;;
51288;SDS011;37372;52.294;5.152;2023-08-20T11:01:33;8.80;;;1.83;;
51288;SDS011;37372;52.294;5.152;2023-08-20T11:03:59;5.43;;;1.58;;
51288;SDS011;37372;52.294;5.152;2023-08-20T11:06:30;7.82;;;1.48;;
51288;SDS011;37372;52.294;5.152;2023-08-20T11:08:57;6.03;;;1.02;;
51288;SDS011;37372;52.294;5.152;2023-08-20T11:11:22;5.68;;;1.70;;
51288;SDS011;37372;52.294;5.152;2023-08-20T11:13:48;9.07;;;1.83;;
51288;SDS011;37372;52.294;5.152;2023-08-20T11:16:14;9.40;;;1.30;;
51288;SDS011;37372;52.294;5.152;2023-08-20T11:18:39;6.53;;;1.40;;
51288;SDS011;37372;52.294;5.152;2023-08-20T11:21:04;9.30;;;1.52;;
51288;SDS011;37372;52.294;5.152;2023-08-20T11:23:30;2.78;;;0.75;;
51288;SDS011;37372;52.294;5.152;2023-08-20T11:25:56;6.43;;;1.10;;
51288;SDS011;37372;52.294;5.152;2023-08-20T11:28:22;9.30;;;1.42;;
51288;SDS011;37372;52.294;5.152;2023-08-20T11:30:49;7.57;;;1.48;;
51288;SDS011;37372;52.294;5.152;2023-08-20T11:33:15;5.93;;;1.80;;
51288;SDS011;37372;52.294;5.152;2023-08-20T11:35:41;6.60;;;1.20;;
51288;SDS011;37372;52.294;5.152;2023-08-20T11:38:08;9.38;;;1.60;;
51288;SDS011;37372;52.294;5.152;2023-08-20T11:40:35;6.75;;;1.42;;
51288;SDS011;37372;52.294;5.152;2023-08-20T11:43:01;10.73;;;1.13;;
51288;SDS011;37372;52.294;5.152;2023-08-20T11:45:26;6.70;;;1.25;;
51288;SDS011;37372;52.294;5.152;2023-08-20T11:47:55;7.57;;;1.25;;
51288;SDS011;37372;52.294;5.152;2023-08-20T11:50:22;8.63;;;1.27;;
51288;SDS011;37372;52.294;5.152;2023-08-20T11:52:48;6.70;;;1.08;;
51288;SDS011;37372;52.294;5.152;2023-08-20T11:55:21;6.78;;;2.38;;
51288;SDS011;37372;52.294;5.152;2023-08-20T11:57:51;7.15;;;1.42;;
51288;SDS011;37372;52.294;5.152;2023-08-20T12:00:24;10.25;;;1.52;;
51288;SDS011;37372;52.294;5.152;2023-08-20T12:02:54;6.32;;;1.10;;
51288;SDS011;37372;52.294;5.152;2023-08-20T12:05:20;5.50;;;1.25;;
51288;SDS011;37372;52.294;5.152;2023-08-20T12:07:59;5.72;;;1.08;;
51288;SDS011;37372;52.294;5.152;2023-08-20T12:10:27;2.90;;;0.70;;
51288;SDS011;37372;52.294;5.152;2023-08-20T12:12:54;4.45;;;0.80;;
51288;SDS011;37372;52.294;5.152;2023-08-20T12:15:21;5.15;;;0.82;;
51288;SDS011;37372;52.294;5.152;2023-08-20T12:18:05;4.90;;;1.27;;
51288;SDS011;37372;52.294;5.152;2023-08-20T12:20:34;6.78;;;1.10;;
51288;SDS011;37372;52.294;5.152;2023-08-20T12:23:01;5.78;;;0.85;;
51288;SDS011;37372;52.294;5.152;2023-08-20T12:25:29;6.72;;;1.20;;
51288;SDS011;37372;52.294;5.152;2023-08-20T12:27:55;4.22;;;0.90;;
51288;SDS011;37372;52.294;5.152;2023-08-20T12:30:21;3.90;;;1.00;;
51288;SDS011;37372;52.294;5.152;2023-08-20T12:32:46;4.47;;;0.93;;
51288;SDS011;37372;52.294;5.152;2023-08-20T12:35:12;3.13;;;0.80;;
51288;SDS011;37372;52.294;5.152;2023-08-20T12:37:38;4.72;;;1.00;;
51288;SDS011;37372;52.294;5.152;2023-08-20T12:40:03;3.75;;;0.75;;
51288;SDS011;37372;52.294;5.152;2023-08-20T12:42:32;7.40;;;1.05;;
51288;SDS011;37372;52.294;5.152;2023-08-20T12:44:57;3.28;;;0.70;;
51288;SDS011;37372;52.294;5.152;2023-08-20T12:47:23;4.00;;;0.75;;
51288;SDS011;37372;52.294;5.152;2023-08-20T12:49:48;4.15;;;0.70;;
51288;SDS011;37372;52.294;5.152;2023-08-20T12:52:13;3.92;;;0.90;;
51288;SDS011;37372;52.294;5.152;2023-08-20T12:54:39;3.83;;;1.05;;
51288;SDS011;37372;52.294;5.152;2023-08-20T12:57:04;8.77;;;1.52;;
51288;SDS011;37372;52.294;5.152;2023-08-20T12:59:29;5.22;;;0.85;;
51288;SDS011;37372;52.294;5.152;2023-08-20T13:01:55;4.45;;;0.70;;
51288;SDS011;37372;52.294;5.152;2023-08-20T13:04:20;3.65;;;0.82;;
51288;SDS011;37372;52.294;5.152;2023-08-20T13:06:46;3.92;;;0.70;;
51288;SDS011;37372;52.294;5.152;2023-08-20T13:09:12;6.28;;;1.52;;
51288;SDS011;37372;52.294;5.152;2023-08-20T13:11:40;3.60;;;0.82;;
51288;SDS011;37372;52.294;5.152;2023-08-20T13:14:07;3.55;;;0.98;;
51288;SDS011;37372;52.294;5.152;2023-08-20T13:16:33;6.55;;;1.00;;
51288;SDS011;37372;52.294;5.152;2023-08-20T13:18:59;5.18;;;0.82;;
51288;SDS011;37372;52.294;5.152;2023-08-20T13:21:24;5.85;;;1.20;;
51288;SDS011;37372;52.294;5.152;2023-08-20T13:23:50;3.50;;;0.63;;
51288;SDS011;37372;52.294;5.152;2023-08-20T13:26:15;3.40;;;0.55;;
51288;SDS011;37372;52.294;5.152;2023-08-20T13:28:40;4.38;;;0.73;;
51288;SDS011;37372;52.294;5.152;2023-08-20T13:31:06;3.85;;;0.90;;
51288;SDS011;37372;52.294;5.152;2023-08-20T13:33:31;4.40;;;1.25;;
51288;SDS011;37372;52.294;5.152;2023-08-20T13:35:56;2.35;;;0.60;;
51288;SDS011;37372;52.294;5.152;2023-08-20T13:38:22;5.93;;;0.93;;
51288;SDS011;37372;52.294;5.152;2023-08-20T13:40:48;7.93;;;1.00;;
51288;SDS011;37372;52.294;5.152;2023-08-20T13:43:14;2.97;;;0.90;;
51288;SDS011;37372;52.294;5.152;2023-08-20T13:45:39;4.72;;;0.60;;
51288;SDS011;37372;52.294;5.152;2023-08-20T13:48:05;10.90;;;2.03;;
51288;SDS011;37372;52.294;5.152;2023-08-20T13:50:30;5.10;;;1.35;;
51288;SDS011;37372;52.294;5.152;2023-08-20T13:52:56;2.85;;;0.70;;
51288;SDS011;37372;52.294;5.152;2023-08-20T13:55:21;9.73;;;1.52;;
51288;SDS011;37372;52.294;5.152;2023-08-20T13:57:46;3.17;;;0.80;;
51288;SDS011;37372;52.294;5.152;2023-08-20T14:00:12;3.88;;;0.80;;
51288;SDS011;37372;52.294;5.152;2023-08-20T14:02:38;3.33;;;1.00;;
51288;SDS011;37372;52.294;5.152;2023-08-20T14:05:04;5.45;;;0.90;;
51288;SDS011;37372;52.294;5.152;2023-08-20T14:07:30;7.20;;;1.35;;
51288;SDS011;37372;52.294;5.152;2023-08-20T14:09:56;3.78;;;0.80;;
51288;SDS011;37372;52.294;5.152;2023-08-20T14:12:21;8.80;;;1.77;;
51288;SDS011;37372;52.294;5.152;2023-08-20T14:14:47;5.30;;;0.90;;
51288;SDS011;37372;52.294;5.152;2023-08-20T14:17:12;6.78;;;0.90;;
51288;SDS011;37372;52.294;5.152;2023-08-20T14:19:37;6.90;;;1.02;;
51288;SDS011;37372;52.294;5.152;2023-08-20T14:22:03;6.55;;;1.35;;
51288;SDS011;37372;52.294;5.152;2023-08-20T14:24:28;3.50;;;0.70;;
51288;SDS011;37372;52.294;5.152;2023-08-20T14:26:53;6.72;;;0.90;;
51288;SDS011;37372;52.294;5.152;2023-08-20T14:29:19;4.95;;;1.70;;
51288;SDS011;37372;52.294;5.152;2023-08-20T14:31:44;3.85;;;0.85;;
51288;SDS011;37372;52.294;5.152;2023-08-20T14:34:10;4.72;;;1.35;;
51288;SDS011;37372;52.294;5.152;2023-08-20T14:36:35;2.92;;;0.80;;
51288;SDS011;37372;52.294;5.152;2023-08-20T14:39:01;3.92;;;1.02;;
51288;SDS011;37372;52.294;5.152;2023-08-20T14:41:26;3.55;;;1.10;;
51288;SDS011;37372;52.294;5.152;2023-08-20T14:43:51;3.38;;;0.82;;
51288;SDS011;37372;52.294;5.152;2023-08-20T14:46:17;4.68;;;1.00;;
51288;SDS011;37372;52.294;5.152;2023-08-20T14:48:43;5.15;;;0.70;;
51288;SDS011;37372;52.294;5.152;2023-08-20T14:51:09;5.30;;;1.42;;
51288;SDS011;37372;52.294;5.152;2023-08-20T14:53:34;5.40;;;1.00;;
51288;SDS011;37372;52.294;5.152;2023-08-20T14:56:00;5.28;;;1.10;;